createdAt,value
2022-10-07T11:13:00.000Z,19.840698
2022-10-07T11:13:21.000Z,19.901123
2022-10-07T11:13:41.000Z,20.001831
2022-10-07T11:14:02.000Z,20.052185
2022-10-07T11:14:22.000Z,20.132751
2022-10-07T11:14:43.000Z,20.162964
2022-10-07T11:15:03.000Z,20.213318
2022-10-07T11:15:23.000Z,20.283813
2022-10-07T11:15:44.000Z,20.344238
2022-10-07T11:16:04.000Z,20.384521
2022-10-07T11:16:24.000Z,20.525513
2022-10-07T11:16:45.000Z,20.535583
2022-10-07T11:17:05.000Z,20.575867
2022-10-07T11:17:25.000Z,20.575867
2022-10-07T11:17:46.000Z,20.585938
2022-10-07T11:18:06.000Z,20.585938
2022-10-07T11:18:26.000Z,20.535583
2022-10-07T11:18:46.000Z,20.505371
2022-10-07T11:19:07.000Z,20.455017
2022-10-07T11:19:28.000Z,20.394592
2022-10-07T11:19:48.000Z,20.354309
2022-10-07T11:20:08.000Z,20.314026
2022-10-07T11:20:29.000Z,20.273743
2022-10-07T11:20:49.000Z,20.213318
2022-10-07T11:21:09.000Z,20.152893
2022-10-07T11:21:30.000Z,20.102539
2022-10-07T11:21:51.000Z,20.102539
2022-10-07T11:22:13.000Z,20.082397
2022-10-07T11:22:34.000Z,20.062256
2022-10-07T11:22:54.000Z,20.092468
2022-10-07T11:23:14.000Z,20.102539
2022-10-07T11:23:35.000Z,20.122681
2022-10-07T11:23:55.000Z,20.162964
2022-10-07T11:24:15.000Z,20.162964
2022-10-07T11:24:37.000Z,20.183105
2022-10-07T11:24:57.000Z,20.203247
2022-10-07T11:25:18.000Z,20.203247
2022-10-07T11:25:38.000Z,20.253601
2022-10-07T11:25:59.000Z,20.273743
2022-10-07T11:26:19.000Z,20.314026
2022-10-07T11:26:39.000Z,20.314026
2022-10-07T11:27:00.000Z,20.314026
2022-10-07T11:27:21.000Z,20.344238
2022-10-07T11:27:41.000Z,20.414734
2022-10-07T11:28:02.000Z,20.414734
2022-10-07T11:28:22.000Z,20.424805
2022-10-07T11:28:42.000Z,20.455017
2022-10-07T11:29:02.000Z,20.485229
2022-10-07T11:29:23.000Z,20.535583
2022-10-07T11:29:43.000Z,20.585938
2022-10-07T11:30:04.000Z,20.646362
2022-10-07T11:30:25.000Z,20.656433
2022-10-07T11:30:45.000Z,20.706787
2022-10-07T11:31:05.000Z,20.797424
2022-10-07T11:31:26.000Z,20.827637
2022-10-07T11:31:46.000Z,20.827637
2022-10-07T11:32:06.000Z,20.837708
2022-10-07T11:32:27.000Z,20.837708
2022-10-07T11:32:47.000Z,20.797424
2022-10-07T11:33:08.000Z,20.716858
2022-10-07T11:33:28.000Z,20.737000
2022-10-07T11:33:49.000Z,20.737000
2022-10-07T11:34:09.000Z,20.737000
2022-10-07T11:34:29.000Z,20.767212
2022-10-07T11:34:50.000Z,20.787354
2022-10-07T11:35:10.000Z,20.767212
2022-10-07T11:35:30.000Z,20.787354
2022-10-07T11:35:52.000Z,20.767212
2022-10-07T11:36:12.000Z,20.807495
2022-10-07T11:36:33.000Z,20.797424
2022-10-07T15:57:30.000Z,19.780273
2022-10-07T15:57:50.000Z,19.699707
2022-10-07T15:58:11.000Z,19.598999
2022-10-07T15:58:33.000Z,19.498291
2022-10-07T15:58:53.000Z,19.397583
2022-10-07T15:59:14.000Z,19.357300
2022-10-07T15:59:34.000Z,19.276733
2022-10-07T15:59:54.000Z,19.196167
2022-10-07T16:00:15.000Z,19.125671
2022-10-07T16:00:35.000Z,19.055176
2022-10-07T16:00:55.000Z,19.014893
2022-10-07T16:01:16.000Z,18.944397
2022-10-07T16:01:36.000Z,18.904114
2022-10-07T16:01:56.000Z,18.843689
2022-10-07T16:02:17.000Z,18.803406
2022-10-07T16:02:38.000Z,18.773193
2022-10-07T16:02:58.000Z,18.722839
2022-10-07T16:03:18.000Z,18.682556
2022-10-07T16:03:39.000Z,18.622131
2022-10-07T16:03:59.000Z,18.591919
2022-10-07T16:04:20.000Z,18.571777
2022-10-07T16:04:41.000Z,18.491211
2022-10-07T16:05:01.000Z,18.440857
2022-10-07T16:05:21.000Z,18.400574
2022-10-07T16:05:42.000Z,18.340149
2022-10-07T16:06:03.000Z,18.309937
2022-10-07T16:06:23.000Z,18.269653
2022-10-07T16:06:43.000Z,18.219299
2022-10-07T16:07:04.000Z,18.179016
2022-10-07T16:07:25.000Z,18.128662
2022-10-07T16:07:47.000Z,18.068237
2022-10-07T16:08:07.000Z,18.017883
2022-10-07T16:08:27.000Z,17.937317
2022-10-07T16:08:48.000Z,17.886963
2022-10-07T16:09:08.000Z,17.846680
2022-10-07T16:09:29.000Z,17.816467
2022-10-07T16:09:49.000Z,17.806396
2022-10-07T16:10:09.000Z,17.776184
2022-10-07T16:10:30.000Z,17.756042
2022-10-07T16:10:50.000Z,17.705688
2022-10-07T16:11:10.000Z,17.695618
2022-10-07T16:11:31.000Z,17.685547
2022-10-07T16:11:53.000Z,17.665405
2022-10-07T16:12:14.000Z,17.615051
2022-10-07T16:12:35.000Z,17.554626
2022-10-07T16:12:55.000Z,17.534485
2022-10-07T16:13:16.000Z,17.463989
2022-10-07T16:13:37.000Z,17.413635
2022-10-07T16:13:58.000Z,17.353210
2022-10-07T16:14:18.000Z,17.292786
2022-10-07T16:14:38.000Z,17.262573
2022-10-07T16:14:59.000Z,17.202148
2022-10-07T16:15:19.000Z,17.111511
2022-10-07T16:15:39.000Z,17.061157
2022-10-07T16:16:00.000Z,16.980591
2022-10-07T16:16:21.000Z,16.900024
2022-10-07T16:16:41.000Z,16.859741
2022-10-07T16:17:02.000Z,16.779175
2022-10-07T16:17:22.000Z,16.769104
2022-10-07T16:17:42.000Z,16.708679
2022-10-07T16:18:03.000Z,16.678467
2022-10-07T16:18:24.000Z,16.668396
2022-10-07T16:18:44.000Z,16.648254
2022-10-07T16:19:05.000Z,16.648254
2022-10-07T16:19:25.000Z,16.648254
2022-10-07T16:19:46.000Z,16.648254
2022-10-07T16:20:06.000Z,16.678467
2022-10-07T16:20:26.000Z,16.698608
2022-10-07T16:20:46.000Z,16.708679
2022-10-07T16:21:07.000Z,16.748962
2022-10-07T16:21:27.000Z,16.779175
2022-10-07T16:21:47.000Z,16.809387
2022-10-07T16:22:08.000Z,16.859741
2022-10-07T16:22:28.000Z,16.889954
